Time;durP1;ratioP1;P1;durP2;ratioP2;P2;SDS_P1;SDS_P2;PMS_P1;PMS_P2;Temp;Humidity;BMP_temperature;BMP_pressure;BME280_temperature;BME280_humidity;BME280_pressure;Samples;Min_cycle;Max_cycle;Signal;HPM_P1;HPM_P2
2021/12/29 00:00:54;;;;;;;0.60;0.60;;;10.80;99.90;;;11.04;84.33;99260.09;4952834;29;20621;-67
2021/12/29 00:03:21;;;;;;;1.33;0.73;;;10.80;99.90;;;11.06;84.71;99259.94;4953798;28;21050;-67
2021/12/29 00:05:48;;;;;;;3.50;0.70;;;10.80;99.90;;;11.06;84.33;99270.38;4964855;28;20687;-67
2021/12/29 00:08:15;;;;;;;0.60;0.60;;;10.80;99.90;;;11.03;85.17;99273.28;4952201;29;21040;-67
2021/12/29 00:10:43;;;;;;;0.50;0.50;;;10.70;99.90;;;11.05;84.97;99273.97;4952737;29;21221;-66
2021/12/29 00:13:10;;;;;;;0.40;0.40;;;10.80;99.90;;;11.01;84.88;99281.25;4936872;29;20636;-66
2021/12/29 00:15:36;;;;;;;0.80;0.50;;;10.80;99.90;;;10.98;85.16;99293.75;4955169;29;20625;-66
2021/12/29 00:18:04;;;;;;;0.30;0.30;;;10.70;99.90;;;11.00;86.09;99291.84;4951848;29;21082;-66
2021/12/29 00:20:32;;;;;;;5.80;0.53;;;10.70;99.90;;;11.00;85.60;99297.06;4951662;29;20636;-65
2021/12/29 00:23:02;;;;;;;0.40;0.40;;;10.70;99.90;;;11.02;85.93;99302.94;4936928;29;20636;-66
2021/12/29 00:25:31;;;;;;;0.60;0.60;;;10.70;99.90;;;11.04;85.02;99309.66;4952915;29;20687;-66
2021/12/29 00:27:59;;;;;;;0.60;0.60;;;10.80;99.90;;;11.05;85.22;99310.50;4952902;29;20639;-66
2021/12/29 00:30:28;;;;;;;0.53;0.53;;;10.80;99.90;;;11.01;85.72;99315.16;4954873;29;20691;-67
2021/12/29 00:32:57;;;;;;;0.40;0.40;;;10.80;99.90;;;11.02;85.52;99316.00;4951888;28;20659;-66
2021/12/29 00:35:24;;;;;;;0.60;0.47;;;10.70;99.90;;;10.98;85.74;99328.53;4954710;28;20620;-66
2021/12/29 00:37:51;;;;;;;1.03;0.47;;;10.70;99.90;;;11.02;85.84;99326.44;4950550;29;20634;-67
2021/12/29 00:40:18;;;;;;;1.80;0.60;;;10.80;99.90;;;11.04;85.28;99329.72;4949875;28;21720;-67
2021/12/29 00:42:45;;;;;;;0.47;0.47;;;10.80;99.90;;;11.01;85.89;99330.03;4985165;23;20691;-67
2021/12/29 00:45:12;;;;;;;0.90;0.70;;;10.70;99.90;;;11.01;85.52;99340.47;4980869;28;20770;-66
2021/12/29 00:47:39;;;;;;;1.00;0.70;;;10.70;99.90;;;11.02;85.07;99349.94;4973878;28;20647;-67
2021/12/29 00:50:15;;;;;;;2.23;0.60;;;10.80;99.90;;;11.04;85.37;99350.59;4971039;28;20981;-66
2021/12/29 00:52:45;;;;;;;0.50;0.50;;;10.80;99.90;;;11.01;84.71;99361.34;4967624;28;20658;-67
2021/12/29 00:55:14;;;;;;;0.50;0.40;;;10.80;99.90;;;11.01;85.42;99371.78;4951844;28;20644;-67
2021/12/29 00:57:42;;;;;;;0.60;0.60;;;10.70;99.90;;;10.97;86.14;99373.03;4965150;28;20639;-67
2021/12/29 01:00:14;;;;;;;0.60;0.60;;;10.70;99.90;;;11.01;86.41;99377.00;4973071;28;20726;-67
2021/12/29 01:02:41;;;;;;;3.17;0.80;;;10.70;99.90;;;10.93;85.98;99388.97;4956792;28;20661;-66
2021/12/29 01:05:10;;;;;;;0.70;0.70;;;10.70;99.90;;;10.93;86.42;99394.19;4960388;28;20647;-66
2021/12/29 01:07:37;;;;;;;0.63;0.60;;;10.60;99.90;;;10.97;86.96;99409.56;4951760;28;21182;-67
2021/12/29 01:10:05;;;;;;;0.70;0.60;;;10.70;99.90;;;10.99;87.61;99405.03;4972646;28;20638;-67
2021/12/29 01:12:32;;;;;;;1.80;1.10;;;10.70;99.90;;;10.98;87.05;99411.19;4953092;28;20984;-66
2021/12/29 01:15:02;;;;;;;3.30;0.77;;;10.70;99.90;;;10.98;86.82;99419.03;4970642;28;20635;-67
2021/12/29 01:17:31;;;;;;;1.33;0.70;;;10.70;99.90;;;10.95;86.82;99422.75;4969920;28;21186;-67
2021/12/29 01:19:58;;;;;;;3.17;0.70;;;10.70;99.90;;;10.90;86.65;99414.53;4938186;28;20643;-67
2021/12/29 01:22:25;;;;;;;0.70;0.70;;;10.60;99.90;;;10.89;87.52;99425.91;4952892;28;20659;-67
2021/12/29 01:24:52;;;;;;;0.30;0.30;;;10.60;99.90;;;10.91;87.74;99429.22;4978677;28;20677;-66
2021/12/29 01:27:19;;;;;;;1.90;0.70;;;10.60;99.90;;;10.91;86.37;99440.47;4969626;28;20639;-66
2021/12/29 01:29:47;;;;;;;0.60;0.50;;;10.60;99.90;;;10.89;87.27;99454.63;4972134;28;20591;-67
2021/12/29 01:32:14;;;;;;;1.60;0.63;;;10.60;99.90;;;10.92;86.69;99462.19;4969963;28;20673;-66
2021/12/29 01:34:41;;;;;;;0.50;0.43;;;10.60;99.90;;;10.95;86.64;99472.31;4972440;28;20630;-66
2021/12/29 01:37:10;;;;;;;1.07;0.50;;;10.70;99.90;;;10.99;86.64;99491.97;4953082;28;21255;-66
2021/12/29 01:39:37;;;;;;;0.40;0.40;;;10.70;99.90;;;10.97;87.03;99488.66;4970354;28;20641;-66
2021/12/29 01:42:04;;;;;;;0.50;0.50;;;10.70;99.90;;;10.96;87.04;99492.25;4972044;28;20650;-67
2021/12/29 01:44:31;;;;;;;0.50;0.50;;;10.70;99.90;;;10.94;88.16;99502.81;4969935;28;20750;-67
2021/12/29 01:46:58;;;;;;;0.47;0.47;;;10.70;99.90;;;10.91;88.17;99500.50;4938759;28;20598;-67
2021/12/29 01:49:26;;;;;;;0.60;0.60;;;10.60;99.90;;;10.91;88.32;99508.31;4952934;28;20639;-67
2021/12/29 01:52:03;;;;;;;1.00;0.43;;;10.60;99.90;;;10.90;88.35;99509.28;4971260;28;20663;-66
2021/12/29 01:54:34;;;;;;;1.10;0.40;;;10.60;99.90;;;10.92;88.23;99509.16;4964534;28;20630;-67
2021/12/29 01:57:07;;;;;;;0.50;0.40;;;10.70;99.90;;;10.92;88.87;99511.78;4985778;28;20718;-67
2021/12/29 01:59:35;;;;;;;0.40;0.40;;;10.60;99.90;;;10.90;89.50;99516.31;4955610;28;20623;-67
2021/12/29 02:02:04;;;;;;;0.70;0.50;;;10.60;99.90;;;10.93;88.53;99514.22;4953000;28;20734;-66
2021/12/29 02:04:32;;;;;;;0.57;0.57;;;10.70;99.90;;;10.92;89.03;99530.84;4971199;28;20663;-67
2021/12/29 02:07:03;;;;;;;0.43;0.43;;;10.60;99.90;;;10.90;88.80;99540.59;4969387;28;20642;-66
2021/12/29 02:09:30;;;;;;;0.60;0.60;;;10.60;99.90;;;10.92;88.39;99540.47;4954872;28;21194;-65
2021/12/29 02:11:57;;;;;;;1.90;0.67;;;10.70;99.90;;;10.88;89.18;99537.31;4970037;28;20631;-67
2021/12/29 02:14:24;;;;;;;0.40;0.40;;;10.60;99.90;;;10.88;88.45;99536.50;4954175;28;20635;-67
2021/12/29 02:16:51;;;;;;;0.40;0.40;;;10.60;99.90;;;10.85;88.79;99541.97;4953014;28;20730;-66
2021/12/29 02:19:18;;;;;;;1.47;0.67;;;10.50;99.90;;;10.84;89.30;99548.97;4953760;28;20657;-66
2021/12/29 02:21:56;;;;;;;2.67;0.60;;;10.50;99.90;;;10.80;89.91;99545.00;4954440;28;20639;-67
2021/12/29 02:24:35;;;;;;;0.50;0.50;;;10.50;99.90;;;10.81;89.68;99548.44;4974811;28;21235;-67
2021/12/29 02:27:04;;;;;;;1.00;0.53;;;10.50;99.90;;;10.85;89.60;99553.25;4970234;28;21209;-67
2021/12/29 02:29:33;;;;;;;0.60;0.50;;;10.50;99.90;;;10.84;89.80;99551.59;4969353;28;21169;-67
2021/12/29 02:32:01;;;;;;;0.67;0.30;;;10.50;99.90;;;10.80;89.11;99552.81;4950377;28;20655;-66
2021/12/29 02:34:30;;;;;;;0.50;0.50;;;10.50;99.90;;;10.77;88.96;99553.13;4969929;28;20719;-66
2021/12/29 02:36:59;;;;;;;0.63;0.60;;;10.50;99.90;;;10.74;89.24;99568.19;4970216;28;20969;-67
2021/12/29 02:39:26;;;;;;;0.50;0.50;;;10.40;99.90;;;10.76;89.38;99576.72;4968789;28;20653;-67
2021/12/29 02:41:54;;;;;;;0.50;0.50;;;10.50;99.90;;;10.76;89.08;99593.19;4967837;28;21264;-67
2021/12/29 02:44:29;;;;;;;1.50;0.50;;;10.50;99.90;;;10.77;88.79;99579.22;4951379;28;20710;-67
2021/12/29 02:46:57;;;;;;;0.50;0.50;;;10.50;99.90;;;10.79;89.40;99597.34;4946153;29;20592;-67
2021/12/29 02:49:26;;;;;;;3.73;0.50;;;10.50;99.90;;;10.78;88.54;99596.50;4960155;28;21228;-66
2021/12/29 02:51:53;;;;;;;0.77;0.67;;;10.50;99.90;;;10.78;88.99;99606.94;4969912;28;20754;-66
2021/12/29 02:54:21;;;;;;;2.20;0.40;;;10.50;99.90;;;10.79;88.82;99619.03;4970473;28;20647;-66
2021/12/29 02:56:52;;;;;;;0.83;0.43;;;10.50;99.90;;;10.82;88.63;99623.97;4968523;28;20639;-67
2021/12/29 02:59:19;;;;;;;1.10;0.50;;;10.60;99.90;;;10.85;88.03;99626.31;4946847;28;21158;-67
2021/12/29 03:01:46;;;;;;;0.70;0.60;;;10.60;99.90;;;10.84;88.26;99624.66;4972062;28;20710;-66
2021/12/29 03:04:14;;;;;;;1.17;0.47;;;10.60;99.90;;;10.83;88.12;99625.63;4971143;28;21063;-66
2021/12/29 03:06:41;;;;;;;0.60;0.60;;;10.60;99.90;;;10.90;88.04;99621.50;4953885;28;20615;-66
2021/12/29 03:09:12;;;;;;;0.50;0.50;;;10.60;99.90;;;10.90;87.70;99612.84;4970631;28;20619;-66
2021/12/29 03:11:42;;;;;;;0.60;0.60;;;10.60;99.90;;;10.89;87.95;99611.19;4951867;28;21701;-66
2021/12/29 03:14:11;;;;;;;2.10;0.70;;;10.60;99.90;;;10.82;87.84;99634.41;4973361;28;20681;-67
2021/12/29 03:16:39;;;;;;;0.60;0.60;;;10.50;99.90;;;10.87;87.36;99649.66;4972058;28;20621;-64
2021/12/29 03:19:06;;;;;;;0.60;0.60;;;10.60;99.90;;;10.88;86.94;99649.50;4957139;28;20822;-66
2021/12/29 03:21:34;;;;;;;1.83;0.77;;;10.60;99.90;;;10.86;87.19;99651.44;4972887;28;20653;-66
2021/12/29 03:24:03;;;;;;;0.60;0.60;;;10.60;99.90;;;10.85;88.11;99639.34;4980825;28;20610;-67
2021/12/29 03:26:30;;;;;;;1.33;0.50;;;10.60;99.90;;;10.86;87.27;99634.97;4953414;29;20612;-67
2021/12/29 03:28:57;;;;;;;0.63;0.63;;;10.60;99.90;;;10.94;86.87;99643.75;4970884;28;20645;-67
2021/12/29 03:31:26;;;;;;;0.50;0.50;;;10.60;99.90;;;10.90;86.45;99650.19;4973629;28;21069;-66
2021/12/29 03:33:54;;;;;;;1.77;0.70;;;10.60;99.90;;;10.88;86.25;99643.50;4955146;28;20638;-66
2021/12/29 03:36:21;;;;;;;0.97;0.40;;;10.60;99.90;;;10.88;86.09;99646.91;4955891;28;20599;-65
2021/12/29 03:38:48;;;;;;;0.50;0.50;;;10.60;99.90;;;10.85;86.79;99655.03;4972319;28;20623;-65
2021/12/29 03:41:18;;;;;;;1.43;0.70;;;10.50;99.90;;;10.88;86.52;99656.53;4973443;28;21032;-67
2021/12/29 03:43:46;;;;;;;0.40;0.40;;;10.60;99.90;;;10.87;85.88;99663.53;4954072;28;20740;-64
2021/12/29 03:46:15;;;;;;;0.50;0.37;;;10.60;99.90;;;10.84;86.61;99658.56;4963296;28;20693;-67
2021/12/29 03:48:44;;;;;;;0.70;0.70;;;10.60;99.90;;;10.90;85.79;99665.06;4971026;28;20687;-66
2021/12/29 03:51:12;;;;;;;0.60;0.60;;;10.60;99.90;;;10.88;86.08;99666.97;4954784;28;21009;-66
2021/12/29 03:53:40;;;;;;;0.47;0.47;;;10.60;99.90;;;10.87;86.37;99671.34;4976659;28;20645;-66
2021/12/29 03:56:08;;;;;;;6.67;0.50;;;10.60;99.90;;;10.88;86.39;99680.03;4991382;28;21152;-67
2021/12/29 03:58:35;;;;;;;0.50;0.50;;;10.60;99.90;;;10.92;86.02;99684.00;4935473;29;20631;-66
2021/12/29 04:01:09;;;;;;;0.67;0.67;;;10.70;99.90;;;10.90;86.41;99697.16;4954751;29;20624;-66
2021/12/29 04:03:37;;;;;;;0.67;0.67;;;10.60;99.90;;;10.86;85.75;99698.41;4969684;28;20677;-67
2021/12/29 04:06:04;;;;;;;1.03;0.50;;;10.60;99.90;;;10.85;85.64;99707.19;4953765;28;21099;-67
2021/12/29 04:08:31;;;;;;;0.50;0.50;;;10.60;99.90;;;10.86;87.00;99705.44;4955409;28;20615;-64
2021/12/29 04:10:58;;;;;;;0.60;0.60;;;10.60;99.90;;;10.84;86.60;99708.16;4972620;28;20635;-67
2021/12/29 04:13:25;;;;;;;0.50;0.50;;;10.60;99.90;;;10.80;87.31;99701.56;4972041;28;20658;-67
2021/12/29 04:15:52;;;;;;;1.47;0.60;;;10.50;99.90;;;10.76;87.61;99708.00;4973367;28;20611;-66
2021/12/29 04:18:30;;;;;;;0.50;0.50;;;10.50;99.90;;;10.79;86.87;99706.91;4971026;28;20665;-67
2021/12/29 04:21:02;;;;;;;0.90;0.63;;;10.50;99.90;;;10.78;87.63;99710.47;4970567;28;20639;-66
2021/12/29 04:23:34;;;;;;;0.60;0.47;;;10.50;99.90;;;10.77;87.29;99722.72;4974819;28;20678;-67
2021/12/29 04:26:05;;;;;;;0.67;0.67;;;10.50;99.90;;;10.75;87.49;99705.53;4978010;28;20670;-67
2021/12/29 04:28:32;;;;;;;0.60;0.60;;;10.50;99.90;;;10.73;87.17;99720.50;4954973;28;20749;-67
2021/12/29 04:31:08;;;;;;;2.50;0.60;;;10.40;99.90;;;10.71;87.77;99731.03;4971160;28;20673;-67
2021/12/29 04:33:37;;;;;;;0.73;0.63;;;10.40;99.90;;;10.73;87.75;99739.56;4971838;28;21113;-66
2021/12/29 04:36:06;;;;;;;3.93;0.60;;;10.50;99.90;;;10.73;88.02;99741.38;4971147;28;20754;-66
2021/12/29 04:38:35;;;;;;;1.33;0.60;;;10.50;99.90;;;10.73;88.64;99750.00;4949931;29;21064;-67
2021/12/29 04:41:03;;;;;;;0.67;0.50;;;10.40;99.90;;;10.72;88.37;99748.38;4957367;28;20645;-67
2021/12/29 04:43:30;;;;;;;0.80;0.50;;;10.50;99.90;;;10.70;88.60;99752.06;4969596;28;20673;-66
2021/12/29 04:45:58;;;;;;;0.67;0.50;;;10.40;99.90;;;10.70;89.66;99759.88;4972307;28;20694;-67
2021/12/29 04:48:26;;;;;;;0.30;0.30;;;10.40;99.90;;;10.68;90.75;99761.81;4968005;28;20973;-65
2021/12/29 04:51:04;;;;;;;0.70;0.50;;;10.40;99.90;;;10.66;91.30;99759.34;4972402;28;20642;-67
2021/12/29 04:53:32;;;;;;;0.40;0.40;;;10.40;99.90;;;10.63;93.48;99753.53;4973384;28;20654;-67
2021/12/29 04:56:00;;;;;;;2.50;0.50;;;10.30;99.90;;;10.59;94.35;99755.59;4991976;28;20606;-66
2021/12/29 04:58:27;;;;;;;0.70;0.60;;;10.30;99.90;;;10.59;94.08;99758.19;4976102;28;20643;-66
2021/12/29 05:00:54;;;;;;;0.60;0.60;;;10.30;99.90;;;10.56;94.30;99766.28;4973252;28;20587;-67
2021/12/29 05:03:21;;;;;;;0.60;0.60;;;10.30;99.90;;;10.56;94.73;99763.66;4971209;28;20671;-67
2021/12/29 05:08:24;;;;;;;2.87;0.70;;;10.30;99.90;;;10.54;94.53;99756.94;4970430;28;20671;-67
2021/12/29 05:08:42;;;;;;;0.73;0.53;;;10.30;99.90;;;10.48;95.11;99755.69;4971242;28;21325;-66
2021/12/29 05:11:16;;;;;;;2.20;0.60;;;10.20;99.90;;;10.48;94.90;99766.09;4972110;28;21154;-66
2021/12/29 05:13:45;;;;;;;0.50;0.50;;;10.20;99.90;;;10.48;94.65;99773.09;4953216;29;20589;-67
2021/12/29 05:16:12;;;;;;;0.50;0.50;;;10.20;99.90;;;10.48;94.16;99778.31;4953203;29;20620;-66
2021/12/29 05:18:39;;;;;;;1.50;0.53;;;10.20;99.90;;;10.49;93.75;99783.41;4970869;28;20987;-66
2021/12/29 05:21:08;;;;;;;0.50;0.50;;;10.20;99.90;;;10.53;93.25;99784.81;4973061;28;20623;-66
2021/12/29 05:23:36;;;;;;;0.60;0.60;;;10.20;99.90;;;10.52;93.30;99771.91;4973350;28;21046;-67
2021/12/29 05:26:03;;;;;;;0.50;0.50;;;10.30;99.90;;;10.52;93.26;99779.72;4991944;28;20649;-67
2021/12/29 05:28:30;;;;;;;0.50;0.50;;;10.30;99.90;;;10.53;92.82;99784.81;4975628;28;20638;-67
2021/12/29 05:30:57;;;;;;;0.60;0.60;;;10.20;99.90;;;10.54;92.57;99790.84;4956261;28;20674;-67
2021/12/29 05:33:24;;;;;;;1.37;0.83;;;10.20;99.90;;;10.57;92.19;99793.19;4968205;28;20669;-67
2021/12/29 05:35:52;;;;;;;0.87;0.70;;;10.30;99.90;;;10.52;91.79;99798.00;4972684;28;20603;-66
2021/12/29 05:38:19;;;;;;;0.60;0.60;;;10.20;99.90;;;10.49;91.83;99801.69;4969161;28;20647;-66
2021/12/29 05:40:48;;;;;;;0.60;0.60;;;10.20;99.90;;;10.53;91.68;99808.28;4965579;28;20599;-66
2021/12/29 05:43:15;;;;;;;0.70;0.70;;;10.30;99.90;;;10.55;91.27;99808.97;4970390;28;20689;-68
2021/12/29 05:45:42;;;;;;;0.73;0.73;;;10.30;99.90;;;10.55;91.13;99811.59;4952843;28;20673;-66
2021/12/29 05:48:09;;;;;;;2.30;0.90;;;10.30;99.90;;;10.55;91.37;99808.97;4970174;28;20734;-66
2021/12/29 05:50:36;;;;;;;0.50;0.50;;;10.30;99.90;;;10.55;91.33;99814.19;4971279;28;20619;-64
2021/12/29 05:53:04;;;;;;;1.03;0.93;;;10.30;99.90;;;10.56;90.81;99815.03;4965815;28;20681;-66
2021/12/29 05:55:31;;;;;;;0.60;0.60;;;10.30;99.90;;;10.56;90.35;99809.81;4953344;28;20641;-67
2021/12/29 05:57:58;;;;;;;0.60;0.50;;;10.30;99.90;;;10.54;89.07;99796.06;4971160;28;20614;-66
2021/12/29 06:00:27;;;;;;;0.70;0.70;;;10.30;99.90;;;10.54;88.80;99802.09;4968173;28;21201;-65
2021/12/29 06:02:55;;;;;;;7.80;0.80;;;10.20;99.90;;;10.48;89.93;99807.84;4971417;28;20705;-66
2021/12/29 06:05:24;;;;;;;0.53;0.53;;;10.20;99.90;;;10.48;89.79;99797.41;4970322;28;21280;-64
2021/12/29 06:07:51;;;;;;;0.70;0.70;;;10.20;99.90;;;10.45;90.07;99797.69;4968973;28;20641;-67
2021/12/29 06:10:19;;;;;;;1.63;0.70;;;10.20;99.90;;;10.46;89.82;99798.47;4970874;28;21154;-67
2021/12/29 06:12:46;;;;;;;0.67;0.67;;;10.10;99.90;;;10.47;89.70;99797.53;4970257;28;21248;-66
2021/12/29 06:15:14;;;;;;;0.70;0.70;;;10.20;99.90;;;10.49;90.25;99796.47;4970066;28;20643;-67
2021/12/29 06:17:41;;;;;;;3.43;0.60;;;10.20;99.90;;;10.50;89.95;99799.91;4971305;28;20627;-66
2021/12/29 06:20:11;;;;;;;4.80;0.90;;;10.20;99.90;;;10.50;89.02;99802.50;4953087;28;20635;-67
2021/12/29 06:22:40;;;;;;;0.67;0.67;;;10.20;99.90;;;10.46;89.01;99799.31;4969948;28;20643;-67
2021/12/29 06:25:10;;;;;;;1.97;1.10;;;10.20;99.90;;;10.49;88.93;99809.50;4977015;28;20667;-67
2021/12/29 06:27:38;;;;;;;0.67;0.67;;;10.20;99.90;;;10.48;88.58;99813.06;4953169;28;20587;-66
2021/12/29 06:30:09;;;;;;;2.97;1.00;;;10.20;99.90;;;10.47;88.64;99823.63;4970267;28;20619;-68
2021/12/29 06:32:37;;;;;;;0.60;0.60;;;10.20;99.90;;;10.47;88.88;99821.84;4972217;28;20631;-68
2021/12/29 06:35:06;;;;;;;0.70;0.70;;;10.20;99.90;;;10.45;88.45;99823.75;4969952;28;21079;-66
2021/12/29 06:37:34;;;;;;;0.60;0.60;;;10.20;99.90;;;10.49;88.18;99830.38;4970657;28;20623;-66
2021/12/29 06:40:01;;;;;;;3.07;0.70;;;10.20;99.90;;;10.49;87.88;99834.75;4968729;28;20622;-67
2021/12/29 06:42:28;;;;;;;0.63;0.60;;;10.20;99.90;;;10.51;88.05;99849.31;4987056;23;20692;-70
2021/12/29 06:44:57;;;;;;;2.33;0.90;;;10.20;99.90;;;10.53;87.47;99852.63;4946207;28;20635;-70
2021/12/29 06:47:26;;;;;;;1.50;0.70;;;10.30;99.90;;;10.54;87.76;99849.03;4970232;28;20620;-67
2021/12/29 06:49:53;;;;;;;0.77;0.70;;;10.30;99.90;;;10.52;87.19;99850.94;4973406;28;20996;-67
2021/12/29 06:52:20;;;;;;;0.60;0.60;;;10.20;99.90;;;10.48;87.59;99852.16;4969724;28;20655;-68
2021/12/29 06:54:47;;;;;;;0.50;0.50;;;10.20;99.90;;;10.51;87.82;99870.19;4968892;28;20631;-70
2021/12/29 06:57:15;;;;;;;2.30;0.70;;;10.20;99.90;;;10.51;87.67;99869.34;4955233;29;20648;-68
2021/12/29 06:59:44;;;;;;;0.70;0.70;;;10.20;99.90;;;10.51;87.46;99867.56;4955829;28;20620;-68
2021/12/29 07:02:14;;;;;;;0.60;0.60;;;10.20;99.90;;;10.51;86.80;99871.97;4955136;29;20644;-70
2021/12/29 07:04:42;;;;;;;0.63;0.63;;;10.20;99.90;;;10.51;86.53;99880.63;4955360;29;20612;-68
2021/12/29 07:07:09;;;;;;;0.60;0.60;;;10.20;99.90;;;10.49;87.35;99882.53;4969693;28;20664;-70
2021/12/29 07:09:36;;;;;;;0.57;0.57;;;10.20;99.90;;;10.48;87.55;99886.06;4936141;29;20635;-71
2021/12/29 07:12:04;;;;;;;0.50;0.50;;;10.20;99.90;;;10.45;87.36;99890.72;4958192;28;20644;-68
2021/12/29 07:14:38;;;;;;;1.40;0.60;;;10.20;99.90;;;10.49;87.27;99892.13;4938563;29;20723;-70
2021/12/29 07:17:05;;;;;;;0.80;0.80;;;10.20;99.90;;;10.52;86.84;99897.91;4970708;28;20617;-69
2021/12/29 07:19:34;;;;;;;1.17;0.67;;;10.30;99.90;;;10.47;86.84;99904.47;4937448;29;20646;-68
2021/12/29 07:22:02;;;;;;;0.70;0.60;;;10.20;99.90;;;10.50;86.99;99907.63;4938189;29;20642;-68
2021/12/29 07:24:29;;;;;;;0.50;0.50;;;10.20;99.90;;;10.53;86.18;99917.81;4954554;29;20636;-67
2021/12/29 07:26:55;;;;;;;0.70;0.70;;;10.30;99.90;;;10.49;86.19;99919.03;4954506;29;20682;-70
2021/12/29 07:29:22;;;;;;;0.77;0.70;;;10.30;99.90;;;10.49;86.07;99924.25;4954202;29;20623;-70
2021/12/29 07:31:50;;;;;;;0.30;0.30;;;10.20;99.90;;;10.53;86.32;99920.44;4952918;28;20647;-70
2021/12/29 07:34:20;;;;;;;0.60;0.60;;;10.30;99.90;;;10.55;85.49;99931.56;4955010;29;20616;-67
2021/12/29 07:36:48;;;;;;;0.47;0.47;;;10.30;99.90;;;10.56;86.04;99924.56;4942914;29;20616;-69
2021/12/29 07:39:15;;;;;;;0.83;0.70;;;10.30;99.90;;;10.56;85.50;99921.97;4937345;29;20710;-70
2021/12/29 07:41:45;;;;;;;0.63;0.63;;;10.30;99.90;;;10.56;85.96;99930.59;4954290;28;20643;-69
2021/12/29 07:44:14;;;;;;;1.57;0.63;;;10.30;99.90;;;10.59;84.59;99930.34;4936088;29;20646;-70
2021/12/29 07:46:43;;;;;;;0.70;0.70;;;10.30;99.90;;;10.62;84.92;99932.72;4962349;28;20670;-67
2021/12/29 07:49:11;;;;;;;0.60;0.60;;;10.30;99.90;;;10.65;84.77;99940.28;4936626;29;20640;-70
2021/12/29 07:51:40;;;;;;;0.70;0.70;;;10.40;99.90;;;10.59;85.15;99943.41;4937617;29;20623;-70
2021/12/29 07:54:08;;;;;;;0.63;0.63;;;10.30;99.90;;;10.59;85.48;99950.38;4936855;29;21008;-68
2021/12/29 07:56:36;;;;;;;0.80;0.80;;;10.30;99.90;;;10.58;85.24;99953.97;4955098;29;21182;-68
2021/12/29 07:59:03;;;;;;;3.37;0.70;;;10.30;99.90;;;10.63;85.84;99957.84;4936495;28;20987;-70
2021/12/29 08:01:30;;;;;;;1.90;0.80;;;10.30;99.90;;;10.66;85.35;99962.81;4953722;29;20624;-69
2021/12/29 08:03:57;;;;;;;0.60;0.60;;;10.40;99.90;;;10.68;84.84;99973.13;4957449;28;20654;-70
2021/12/29 08:06:24;;;;;;;3.30;0.83;;;10.40;99.90;;;10.68;84.47;99968.75;4940666;29;20688;-68
2021/12/29 08:08:51;;;;;;;0.57;0.57;;;10.40;99.90;;;10.70;84.34;99966.81;4952573;28;20644;-70
2021/12/29 08:11:19;;;;;;;0.70;0.70;;;10.50;99.90;;;10.77;84.63;99974.97;4954312;29;20619;-70
2021/12/29 08:13:47;;;;;;;0.50;0.50;;;10.50;99.90;;;10.78;84.07;99963.56;4953975;28;20679;-68
2021/12/29 08:16:14;;;;;;;2.63;0.80;;;10.60;99.90;;;10.85;83.98;99968.16;4936868;29;21167;-70
2021/12/29 08:18:41;;;;;;;1.10;0.70;;;10.60;99.90;;;10.89;83.80;99964.34;4968059;28;20626;-68
2021/12/29 08:21:08;;;;;;;1.37;1.20;;;10.70;99.90;;;10.95;82.87;99968.22;4951071;28;20644;-67
2021/12/29 08:23:35;;;;;;;2.33;0.80;;;10.80;99.90;;;10.93;83.14;99975.34;4945501;29;20972;-67
2021/12/29 08:26:02;;;;;;;1.90;0.77;;;10.70;99.90;;;10.90;82.68;99971.19;4935720;29;20656;-68
2021/12/29 08:28:29;;;;;;;1.07;0.73;;;10.70;99.90;;;10.93;82.97;99970.97;4951661;28;20604;-70
2021/12/29 08:30:56;;;;;;;1.23;0.97;;;10.70;99.90;;;10.94;82.77;99979.63;4938148;28;20659;-70
2021/12/29 08:33:23;;;;;;;1.33;1.00;;;10.70;99.90;;;10.88;82.70;99972.31;4951567;29;20676;-68
2021/12/29 08:35:51;;;;;;;0.60;0.60;;;10.70;99.90;;;10.90;82.76;99975.63;4956282;28;20639;-70
2021/12/29 08:38:18;;;;;;;3.07;0.90;;;10.70;99.90;;;10.90;82.29;99973.81;4953648;28;20620;-67
2021/12/29 08:40:46;;;;;;;0.50;0.50;;;10.60;99.90;;;10.96;81.69;99972.50;4953545;29;20623;-67
2021/12/29 08:43:15;;;;;;;0.60;0.60;;;10.70;99.90;;;11.01;82.13;99969.50;4935391;28;20666;-70
2021/12/29 08:45:46;;;;;;;0.70;0.50;;;10.80;99.90;;;11.07;81.72;99969.81;4931757;29;21306;-70
2021/12/29 08:48:14;;;;;;;1.00;0.90;;;10.80;99.90;;;11.08;81.46;99968.84;4951467;29;20694;-71
2021/12/29 08:50:43;;;;;;;0.70;0.70;;;10.90;99.90;;;11.13;81.33;99966.66;4951855;29;21199;-68
2021/12/29 08:53:10;;;;;;;0.83;0.70;;;10.90;99.90;;;11.20;80.02;99966.97;4951164;28;20656;-70
2021/12/29 08:55:46;;;;;;;1.93;0.87;;;11.00;99.90;;;11.21;80.53;99966.00;4934871;29;20628;-69
2021/12/29 08:58:16;;;;;;;4.73;0.57;;;11.00;99.90;;;11.26;80.38;99980.34;4935821;29;20655;-71
2021/12/29 09:00:43;;;;;;;1.67;0.90;;;11.00;99.90;;;11.26;80.03;99993.41;4954324;28;20846;-71
2021/12/29 09:03:11;;;;;;;0.70;0.70;;;11.10;99.90;;;11.31;79.99;99985.16;4958846;28;20818;-68
2021/12/29 09:05:38;;;;;;;3.10;1.03;;;11.10;99.90;;;11.36;80.10;99986.44;4953340;28;20703;-68
2021/12/29 09:08:05;;;;;;;4.70;0.97;;;11.20;99.90;;;11.41;79.48;99988.66;4953777;29;20627;-71
2021/12/29 09:10:32;;;;;;;0.87;0.60;;;11.20;99.90;;;11.43;79.44;99995.41;4952918;28;20647;-68
2021/12/29 09:12:59;;;;;;;3.80;0.90;;;11.20;99.90;;;11.51;80.02;100000.81;4951315;29;20670;-69
2021/12/29 09:15:26;;;;;;;1.17;1.07;;;11.30;99.90;;;11.54;79.55;100007.56;4967688;28;20620;-71
2021/12/29 09:17:53;;;;;;;2.80;1.30;;;11.30;99.90;;;11.58;79.55;100003.72;4949769;29;20647;-67
2021/12/29 09:20:32;;;;;;;0.37;0.37;;;11.40;99.90;;;11.70;78.65;100013.13;4966836;28;20608;-68
2021/12/29 09:23:07;;;;;;;0.60;0.60;;;11.50;99.90;;;11.71;78.30;100003.53;4951668;29;20660;-69
2021/12/29 09:25:39;;;;;;;1.40;0.80;;;11.50;99.90;;;11.89;78.20;100007.13;4936163;29;20764;-68
2021/12/29 09:28:08;;;;;;;0.80;0.80;;;11.80;99.90;;;12.09;77.02;100007.06;4919971;29;20636;-69
2021/12/29 09:30:38;;;;;;;1.60;0.80;;;12.00;99.90;;;12.33;74.91;100012.72;4936388;29;20613;-71
2021/12/29 09:33:07;;;;;;;1.53;0.90;;;12.30;99.90;;;12.50;74.28;100007.81;4939089;29;20816;-71
2021/12/29 09:35:34;;;;;;;5.80;1.10;;;12.50;99.90;;;12.72;72.90;100017.97;4937967;29;20731;-70
2021/12/29 09:38:03;;;;;;;4.63;1.07;;;12.70;99.90;;;12.82;72.25;100018.81;4950708;29;21222;-72
2021/12/29 09:40:31;;;;;;;0.83;0.83;;;12.90;99.90;;;12.95;70.95;100020.16;4940486;29;20739;-73
2021/12/29 09:42:58;;;;;;;1.90;1.30;;;13.00;99.90;;;12.97;70.98;100020.84;4950987;29;20666;-69
2021/12/29 09:45:26;;;;;;;0.80;0.70;;;13.00;99.90;;;13.02;71.25;100026.50;4955958;28;20643;-71
2021/12/29 09:47:57;;;;;;;1.20;1.10;;;13.00;99.90;;;13.02;70.68;100025.66;4948383;29;20671;-70
2021/12/29 09:50:26;;;;;;;2.33;1.03;;;13.00;99.90;;;13.04;70.88;100023.72;4933369;29;20620;-69
2021/12/29 09:52:54;;;;;;;1.00;1.00;;;13.00;99.90;;;13.07;71.16;100023.50;4935032;29;20642;-71
2021/12/29 09:55:22;;;;;;;0.73;0.73;;;13.00;99.90;;;13.00;71.26;100027.59;4952426;29;20620;-69
2021/12/29 09:57:54;;;;;;;2.10;0.90;;;12.90;99.90;;;12.99;71.04;100020.72;4953292;28;21198;-69
2021/12/29 10:00:32;;;;;;;0.90;0.90;;;12.90;99.90;;;13.00;71.27;100031.06;4952714;29;20619;-69
2021/12/29 10:03:05;;;;;;;3.30;1.23;;;12.90;99.90;;;12.95;71.62;100032.41;4945732;29;21139;-72
2021/12/29 10:05:33;;;;;;;2.60;1.50;;;12.90;99.90;;;12.87;71.87;100024.44;4949788;29;20640;-70
2021/12/29 10:08:13;;;;;;;1.37;1.10;;;12.80;99.90;;;12.78;72.03;100028.72;4959273;28;20668;-72
2021/12/29 10:10:46;;;;;;;1.00;1.00;;;12.60;99.90;;;12.68;72.37;100022.66;4951023;29;21011;-75
2021/12/29 10:13:15;;;;;;;3.10;0.80;;;12.50;99.90;;;12.62;72.86;100025.00;4934645;29;20640;-74
2021/12/29 10:15:52;;;;;;;0.60;0.60;;;12.50;99.90;;;12.63;73.27;100024.06;4951214;28;20640;-74
2021/12/29 10:18:24;;;;;;;0.77;0.77;;;12.50;99.90;;;12.58;73.10;100021.84;4935503;29;20973;-74
2021/12/29 10:20:56;;;;;;;5.60;0.90;;;12.40;99.90;;;12.59;72.98;100027.88;4950117;29;20646;-73
2021/12/29 10:23:34;;;;;;;1.70;1.07;;;12.40;99.90;;;12.54;73.16;100017.84;4952079;29;21082;-72